Time;durP1;ratioP1;P1;durP2;ratioP2;P2;SDS_P1;SDS_P2;PMS_P1;PMS_P2;Temp;Humidity;BMP_temperature;BMP_pressure;BME280_temperature;BME280_humidity;BME280_pressure;Samples;Min_cycle;Max_cycle;Signal;HPM_P1;HPM_P2
2022/10/25 00:04:59;;;;;;;6.90;5.30;;;;;;;11.30;82.37;100814.78;10431876;28;20094;-66
2022/10/25 00:10:00;;;;;;;7.60;5.53;;;;;;;11.27;82.92;100817.75;10421607;28;20125;-66
2022/10/25 00:15:02;;;;;;;9.60;6.28;;;;;;;10.80;82.99;100746.47;10420499;28;20390;-66
2022/10/25 00:20:03;;;;;;;9.27;5.47;;;;;;;11.13;83.66;100818.41;10421583;28;20398;-66
2022/10/25 00:25:06;;;;;;;8.65;6.00;;;;;;;10.54;83.70;100748.34;10420812;28;20524;-66
2022/10/25 00:30:08;;;;;;;8.07;5.13;;;;;;;10.88;83.91;100812.94;10435118;28;20065;-65
2022/10/25 00:35:09;;;;;;;8.23;4.60;;;;;;;10.46;83.50;100747.28;10419954;28;20135;-66
2022/10/25 00:40:10;;;;;;;6.55;4.72;;;;;;;10.56;83.83;100764.94;10421210;28;20130;-67
2022/10/25 00:45:26;;;;;;;7.47;5.50;;;;;;;10.87;84.38;100819.25;10420160;28;20041;-66
2022/10/25 00:50:44;;;;;;;8.18;4.75;;;;;;;10.89;84.78;100819.94;10418646;28;20136;-66
2022/10/25 00:55:50;;;;;;;8.15;5.53;;;;;;;10.96;84.75;100852.88;10419603;28;20516;-66
2022/10/25 01:00:51;;;;;;;10.63;5.65;;;;;;;10.99;84.78;100859.69;10435579;28;20611;-66
2022/10/25 01:05:53;;;;;;;8.05;5.68;;;;;;;10.51;84.83;100770.72;10419095;28;20046;-67
2022/10/25 01:10:53;;;;;;;7.85;5.35;;;;;;;10.94;85.19;100846.84;10419321;28;20500;-68
2022/10/25 01:16:32;;;;;;;7.28;5.68;;;;;;;11.05;86.41;100852.91;10418709;28;20047;-66
2022/10/25 01:21:50;;;;;;;8.75;6.03;;;;;;;11.05;86.48;100845.75;10418676;28;20120;-66
2022/10/25 01:26:55;;;;;;;8.82;5.90;;;;;;;11.11;86.12;100860.25;10418397;28;20091;-66
2022/10/25 01:32:37;;;;;;;10.57;6.85;;;;;;;10.88;86.37;100812.13;10425377;28;20092;-67
2022/10/25 01:38:04;;;;;;;10.95;7.25;;;;;;;11.13;86.55;100852.97;10417351;28;20045;-66
2022/10/25 01:43:12;;;;;;;8.43;6.45;;;;;;;10.81;86.35;100819.06;10417683;28;20497;-66
2022/10/25 01:48:22;;;;;;;7.95;5.60;;;;;;;11.12;86.06;100869.88;10417042;28;20038;-67
2022/10/25 01:53:23;;;;;;;8.85;5.50;;;;;;;11.04;85.72;100851.22;10417558;28;20044;-66
2022/10/25 01:58:39;;;;;;;8.43;5.47;;;;;;;11.14;85.73;100863.41;10415409;28;20523;-66
2022/10/25 02:04:00;;;;;;;10.25;5.70;;;;;;;10.69;86.37;100792.75;10417231;28;20045;-66
2022/10/25 02:09:07;;;;;;;9.05;6.25;;;;;;;11.21;86.42;100868.94;10416983;28;20581;-66
2022/10/25 02:14:32;;;;;;;8.70;6.40;;;;;;;11.27;87.08;100864.81;10415163;28;20497;-66
2022/10/25 02:19:39;;;;;;;5.35;3.92;;;;;;;10.37;85.59;100721.66;10415612;28;20103;-67
2022/10/25 02:24:44;;;;;;;5.50;3.67;;;;;;;11.23;85.63;100861.63;10416006;28;20049;-66
2022/10/25 02:29:46;;;;;;;5.72;4.20;;;;;;;11.38;85.67;100875.16;10415460;28;20524;-65
2022/10/25 02:34:48;;;;;;;5.30;4.57;;;;;;;11.40;85.57;100878.50;10415184;28;20041;-65
2022/10/25 02:39:50;;;;;;;5.55;4.38;;;;;;;11.41;86.05;100874.84;10415631;28;20045;-65
2022/10/25 02:44:51;;;;;;;6.82;5.10;;;;;;;11.39;86.28;100877.66;10440876;28;20045;-65
2022/10/25 02:49:51;;;;;;;5.80;4.53;;;;;;;10.81;86.30;100790.66;10440717;28;20524;-65
2022/10/25 02:54:52;;;;;;;5.28;4.60;;;;;;;11.22;86.50;100875.06;10428467;28;20037;-66
2022/10/25 02:59:53;;;;;;;8.50;5.53;;;;;;;10.83;87.44;100831.22;10414753;28;20158;-66
2022/10/25 03:04:54;;;;;;;6.40;5.18;;;;;;;10.67;88.16;100817.81;10414243;28;20048;-66
2022/10/25 03:09:55;;;;;;;6.93;5.32;;;;;;;11.11;88.63;100897.47;10414035;28;20041;-66
2022/10/25 03:14:55;;;;;;;7.35;5.63;;;;;;;11.10;88.54;100914.44;10413984;28;20060;-66
2022/10/25 03:19:56;;;;;;;7.75;5.80;;;;;;;10.72;88.68;100856.22;10409460;28;20099;-67
2022/10/25 03:24:57;;;;;;;10.13;5.45;;;;;;;10.95;88.74;100896.41;10407001;28;20037;-67
2022/10/25 03:29:58;;;;;;;7.38;4.78;;;;;;;11.10;88.84;100920.59;10405970;28;20054;-68
2022/10/25 03:34:59;;;;;;;4.70;3.80;;;;;;;11.13;88.25;100924.75;10407879;28;20516;-68
2022/10/25 03:40:00;;;;;;;4.15;3.17;;;;;;;11.15;87.32;100917.44;10405747;28;20894;-68
2022/10/25 03:45:00;;;;;;;4.95;2.70;;;;;;;11.16;86.87;100925.25;10412862;28;20072;-65
2022/10/25 03:50:01;;;;;;;4.43;2.85;;;;;;;10.61;86.38;100829.88;10413113;28;20037;-66
2022/10/25 03:55:03;;;;;;;4.00;2.80;;;;;;;11.24;86.14;100936.94;10399158;28;20037;-68
2022/10/25 04:00:04;;;;;;;4.15;2.60;;;;;;;11.23;86.22;100938.75;10452379;28;20040;-66
2022/10/25 04:05:05;;;;;;;4.25;3.13;;;;;;;11.16;86.29;100938.56;10452127;28;20048;-66
2022/10/25 04:10:06;;;;;;;3.88;3.10;;;;;;;11.23;86.58;100953.88;10452035;28;20124;-64
2022/10/25 04:15:08;;;;;;;4.10;2.85;;;;;;;11.27;86.89;100958.72;10451227;28;20037;-65
2022/10/25 04:20:09;;;;;;;5.63;3.30;;;;;;;11.08;86.60;100916.41;10452719;28;20048;-66
2022/10/25 04:25:10;;;;;;;5.90;3.47;;;;;;;11.36;86.49;100947.13;10451678;28;20102;-66
2022/10/25 04:30:11;;;;;;;6.32;4.20;;;;;;;11.05;86.22;100866.22;10451734;28;20562;-72
2022/10/25 04:35:12;;;;;;;5.68;4.00;;;;;;;11.29;86.45;100905.38;10451399;28;20071;-68
2022/10/25 04:40:13;;;;;;;6.03;4.10;;;;;;;11.67;86.46;100967.91;10450818;28;20032;-67
2022/10/25 04:45:14;;;;;;;6.93;4.25;;;;;;;11.82;86.37;100966.31;10448482;28;20132;-67
2022/10/25 04:50:15;;;;;;;8.13;4.75;;;;;;;11.95;86.14;100978.38;10441553;28;20131;-66
2022/10/25 04:55:16;;;;;;;7.95;5.22;;;;;;;11.32;85.59;100852.69;10419702;28;20060;-66
2022/10/25 05:00:16;;;;;;;8.73;4.93;;;;;;;11.55;85.63;100886.72;10417676;28;20132;-67
2022/10/25 05:05:18;;;;;;;5.97;4.97;;;;;;;11.81;85.16;100922.03;10415172;28;20068;-69
2022/10/25 05:10:19;;;;;;;7.30;5.18;;;;;;;12.50;84.73;100996.47;10415008;28;20528;-68
2022/10/25 05:15:19;;;;;;;6.13;4.93;;;;;;;12.64;83.83;100973.66;10416400;28;20048;-67
2022/10/25 05:20:20;;;;;;;6.95;5.10;;;;;;;12.70;83.78;100995.16;10418487;28;20516;-69
2022/10/25 05:25:21;;;;;;;6.53;4.72;;;;;;;12.59;83.31;100984.81;10418101;28;20045;-67
2022/10/25 05:30:22;;;;;;;7.45;5.63;;;;;;;12.76;82.70;100999.81;10417662;28;20515;-67
2022/10/25 05:35:23;;;;;;;6.28;4.82;;;;;;;12.91;82.25;101009.81;10418284;28;20413;-67
2022/10/25 05:40:23;;;;;;;9.18;5.88;;;;;;;12.97;82.27;101014.50;10418136;28;20559;-67
2022/10/25 05:45:24;;;;;;;15.15;6.00;;;;;;;12.83;81.38;100927.16;10417659;28;20044;-67
2022/10/25 05:50:25;;;;;;;7.88;5.50;;;;;;;13.52;80.33;100988.91;10417694;28;20049;-66
2022/10/25 05:55:26;;;;;;;6.68;5.10;;;;;;;13.72;79.73;101011.53;10417464;28;20045;-67
2022/10/25 06:00:27;;;;;;;9.38;5.97;;;;;;;13.20;79.26;100939.94;10415837;28;20038;-67
2022/10/25 06:05:28;;;;;;;7.68;5.50;;;;;;;13.29;79.61;100996.81;10416976;28;20065;-67
2022/10/25 06:10:28;;;;;;;6.97;5.57;;;;;;;12.89;79.94;100932.69;10416792;28;20246;-67
2022/10/25 06:15:29;;;;;;;8.38;5.75;;;;;;;13.45;79.95;101000.28;10416129;28;20072;-67
2022/10/25 06:20:30;;;;;;;6.85;5.00;;;;;;;13.66;78.86;101009.56;10416443;28;20042;-66
2022/10/25 06:25:31;;;;;;;8.73;5.47;;;;;;;13.62;78.59;101003.75;10415729;28;20041;-67
2022/10/25 06:30:32;;;;;;;6.50;5.00;;;;;;;13.57;78.01;101015.94;10416462;28;20117;-67
2022/10/25 06:35:33;;;;;;;5.65;4.10;;;;;;;13.52;77.74;101026.28;10415851;28;20511;-67
2022/10/25 06:40:34;;;;;;;6.35;4.55;;;;;;;13.50;77.15;101029.13;10415139;28;20069;-67
2022/10/25 06:45:35;;;;;;;5.80;4.55;;;;;;;12.99;76.92;100952.00;10415577;28;20037;-69
2022/10/25 06:50:35;;;;;;;6.25;4.20;;;;;;;13.38;76.52;100998.47;10414938;28;20052;-67
2022/10/25 06:55:36;;;;;;;7.07;4.25;;;;;;;13.69;75.90;101034.06;10415040;28;20099;-67
2022/10/25 07:00:37;;;;;;;6.22;4.57;;;;;;;13.68;75.80;101031.59;10414458;28;20037;-67
2022/10/25 07:05:38;;;;;;;6.13;4.30;;;;;;;13.19;74.95;100936.47;10415189;28;20041;-67
2022/10/25 07:10:39;;;;;;;6.38;4.13;;;;;;;14.16;73.99;101035.91;10415179;28;20049;-67
2022/10/25 07:15:39;;;;;;;5.82;4.15;;;;;;;14.62;72.27;101043.19;10412572;28;20037;-67
2022/10/25 07:20:45;;;;;;;6.03;4.60;;;;;;;14.34;72.36;101013.44;10413643;28;20079;-67
2022/10/25 07:25:46;;;;;;;7.07;4.20;;;;;;;14.32;71.13;101029.63;10413961;28;20052;-66
2022/10/25 07:30:48;;;;;;;7.25;4.35;;;;;;;14.31;70.79;101048.53;10413941;28;20054;-66
2022/10/25 07:35:49;;;;;;;5.90;4.63;;;;;;;14.14;70.02;101016.53;10413898;28;20076;-67
2022/10/25 07:40:57;;;;;;;11.60;6.35;;;;;;;13.94;71.60;101052.72;10413589;28;20048;-67
2022/10/25 07:45:58;;;;;;;13.23;6.28;;;;;;;13.30;73.15;101060.69;10412848;28;20559;-67
2022/10/25 07:51:06;;;;;;;8.27;6.50;;;;;;;13.01;74.67;101071.81;10413445;28;20041;-68
2022/10/25 07:56:12;;;;;;;9.82;6.25;;;;;;;12.86;74.89;101079.63;10412783;28;20095;-68
2022/10/25 08:01:20;;;;;;;11.02;6.80;;;;;;;12.53;75.20;101020.13;10413643;28;20041;-68
2022/10/25 08:06:23;;;;;;;9.70;6.35;;;;;;;12.76;74.36;101009.66;10412480;28;20041;-67
2022/10/25 08:11:24;;;;;;;12.05;6.97;;;;;;;13.50;73.17;101052.34;10412363;28;20041;-67
2022/10/25 08:16:24;;;;;;;10.73;6.38;;;;;;;13.32;72.45;101007.16;10413582;28;20041;-68
2022/10/25 08:21:25;;;;;;;22.88;13.70;;;;;;;14.08;70.77;101070.66;10412586;28;20045;-68
2022/10/25 08:26:27;;;;;;;14.63;7.55;;;;;;;14.15;69.44;101071.66;10419240;28;20051;-68
2022/10/25 08:31:28;;;;;;;10.55;4.80;;;;;;;14.10;67.87;101078.53;10420435;28;20056;-68
2022/10/25 08:36:29;;;;;;;8.32;4.07;;;;;;;14.00;66.39;101084.06;10420074;28;20508;-68
2022/10/25 08:41:41;;;;;;;7.38;2.97;;;;;;;14.08;62.95;101078.69;10419716;28;20125;-68
2022/10/25 08:46:55;;;;;;;4.72;3.05;;;;;;;14.57;60.80;101067.81;10420329;28;20123;-68
2022/10/25 08:51:59;;;;;;;10.95;6.90;;;;;;;14.35;61.04;101034.63;10419505;28;20041;-68
2022/10/25 08:57:16;;;;;;;25.88;15.93;;;;;;;14.51;60.22;101055.13;10420724;28;20064;-68
2022/10/25 09:02:35;;;;;;;54.60;34.55;;;;;;;14.25;60.78;100985.09;10420611;28;20045;-68
2022/10/25 09:07:43;;;;;;;71.15;40.13;;;;;;;14.48;61.57;101028.72;10419211;28;20102;-68
2022/10/25 09:13:01;;;;;;;85.15;51.40;;;;;;;14.63;61.08;101036.84;10419575;28;20490;-67
2022/10/25 09:18:09;;;;;;;16.33;8.13;;;;;;;15.22;60.61;101050.41;10419148;28;20516;-67
2022/10/25 09:23:28;;;;;;;18.77;10.30;;;;;;;15.64;59.87;101026.72;10419328;28;20049;-68
2022/10/25 09:28:43;;;;;;;7.72;5.47;;;;;;;14.83;58.75;100903.44;10418400;28;20041;-67
2022/10/25 09:33:46;;;;;;;29.17;16.45;;;;;;;15.74;59.74;101027.34;10418993;28;20119;-68
2022/10/25 09:38:54;;;;;;;22.67;15.25;;;;;;;16.02;56.92;100999.88;10417035;28;20103;-68
2022/10/25 09:44:08;;;;;;;24.23;17.20;;;;;;;16.16;56.90;101028.50;10417438;28;20081;-68
2022/10/25 09:49:30;;;;;;;16.63;12.65;;;;;;;16.20;57.10;101029.78;10417272;28;20552;-67
2022/10/25 09:54:41;;;;;;;15.90;11.23;;;;;;;16.19;57.44;101015.53;10417700;28;20191;-68
2022/10/25 09:59:47;;;;;;;8.80;5.28;;;;;;;15.32;58.00;100958.34;10417397;28;20038;-67
2022/10/25 10:04:48;;;;;;;13.65;8.40;;;;;;;15.60;58.47;101023.59;10417270;28;20100;-68
2022/10/25 10:09:53;;;;;;;13.05;9.75;;;;;;;15.47;58.45;101026.09;10417018;28;20041;-68
2022/10/25 10:15:37;;;;;;;6.38;4.68;;;;;;;15.38;58.49;101027.19;10417044;28;20044;-67
2022/10/25 10:20:38;;;;;;;11.55;5.40;;;;;;;14.75;58.54;100965.06;10414877;28;20053;-67
2022/10/25 10:25:44;;;;;;;14.82;3.88;;;;;;;14.86;58.68;101020.78;10416217;28;20049;-66
2022/10/25 10:30:53;;;;;;;6.78;3.42;;;;;;;14.08;58.94;100952.28;10416869;28;20619;-67
2022/10/25 10:35:54;;;;;;;11.95;8.85;;;;;;;14.45;59.08;101006.84;10415889;28;20045;-67
2022/10/25 10:41:20;;;;;;;8.52;4.47;;;;;;;14.58;58.30;101007.97;10415723;28;20034;-67
2022/10/25 10:46:23;;;;;;;6.88;5.40;;;;;;;14.46;58.84;101028.06;10415180;28;20042;-67
2022/10/25 10:51:39;;;;;;;7.30;3.17;;;;;;;13.89;59.05;100962.41;10415441;28;20037;-68
2022/10/25 10:56:40;;;;;;;11.13;7.15;;;;;;;14.21;59.81;101034.53;10415248;28;20037;-68
2022/10/25 11:01:41;;;;;;;12.48;7.15;;;;;;;14.16;60.09;101043.09;10414405;28;20537;-68
2022/10/25 11:06:42;;;;;;;27.60;7.95;;;;;;;14.08;60.95;101041.28;10414677;28;20107;-68
2022/10/25 11:12:02;;;;;;;14.10;7.22;;;;;;;14.00;60.85;101041.34;10414818;28;20041;-68
2022/10/25 11:17:19;;;;;;;18.02;7.88;;;;;;;13.96;60.50;101047.19;10414890;28;20045;-68
2022/10/25 11:22:26;;;;;;;11.90;6.32;;;;;;;13.88;59.78;101032.00;10413854;28;20528;-67
2022/10/25 11:27:51;;;;;;;6.88;4.05;;;;;;;13.79;59.05;101041.91;10414165;28;20044;-67
2022/10/25 11:33:20;;;;;;;4.85;2.95;;;;;;;13.37;59.19;100988.78;10414483;28;20053;-68
2022/10/25 11:38:44;;;;;;;5.72;2.38;;;;;;;13.83;59.72;101050.41;10414388;28;20050;-68
2022/10/25 11:43:52;;;;;;;7.93;3.30;;;;;;;13.91;59.18;101048.53;10412901;28;20499;-67
2022/10/25 11:49:11;;;;;;;12.27;6.35;;;;;;;14.06;59.61;101051.31;10413523;28;20490;-67
2022/10/25 11:54:26;;;;;;;5.20;2.53;;;;;;;14.13;58.73;101052.28;10412815;28;20052;-67
2022/10/25 11:59:36;;;;;;;7.43;3.30;;;;;;;14.18;58.64;101046.44;10412476;28;20045;-68
2022/10/25 12:05:02;;;;;;;18.13;7.85;;;;;;;14.06;58.99;101063.81;10412522;28;20124;-68
2022/10/25 12:10:21;;;;;;;23.20;6.60;;;;;;;13.99;59.83;101060.19;10412377;28;20060;-68
2022/10/25 12:15:50;;;;;;;13.45;2.95;;;;;;;14.03;59.01;101067.69;10413031;28;20091;-68
2022/10/25 12:20:52;;;;;;;4.63;1.80;;;;;;;13.85;59.38;101085.78;10411905;28;20099;-68
2022/10/25 12:25:59;;;;;;;8.35;2.33;;;;;;;13.54;59.50;101051.81;10411986;28;20048;-68
2022/10/25 12:31:07;;;;;;;5.70;2.40;;;;;;;13.66;59.51;101103.84;10412465;28;20061;-68
2022/10/25 12:36:39;;;;;;;10.98;2.30;;;;;;;13.58;58.84;101092.34;10412618;28;20081;-69
2022/10/25 12:41:44;;;;;;;13.75;2.28;;;;;;;13.46;60.11;101110.53;10423556;28;20045;-68
2022/10/25 12:47:30;;;;;;;8.80;1.75;;;;;;;13.57;59.82;101104.84;10443856;28;20060;-69
2022/10/25 12:52:59;;;;;;;4.55;1.75;;;;;;;13.48;59.91;101089.84;10432472;28;20088;-68
2022/10/25 12:58:11;;;;;;;3.38;1.80;;;;;;;13.51;59.87;101099.38;10433701;28;20053;-68
2022/10/25 13:03:57;;;;;;;4.18;1.88;;;;;;;13.55;59.91;101111.34;10399625;28;20058;-67
2022/10/25 13:09:09;;;;;;;6.18;2.03;;;;;;;13.43;59.92;101124.22;10407115;28;20041;-68
2022/10/25 13:14:25;;;;;;;8.13;2.00;;;;;;;13.19;59.65;101115.19;10416708;28;20452;-68
2022/10/25 13:19:28;;;;;;;4.78;2.08;;;;;;;13.20;60.27;101137.38;10413143;28;20068;-68
2022/10/25 13:24:44;;;;;;;15.27;2.97;;;;;;;12.25;59.63;100998.25;10418271;28;20049;-69
2022/10/25 13:30:02;;;;;;;13.68;2.58;;;;;;;12.95;60.46;101120.50;10412948;28;20060;-69
2022/10/25 13:35:36;;;;;;;38.10;3.60;;;;;;;12.96;61.16;101143.50;10417132;28;20045;-68
2022/10/25 13:40:37;;;;;;;33.03;5.53;;;;;;;12.65;61.53;101128.09;10395465;28;20132;-68
2022/10/25 13:45:44;;;;;;;24.13;5.18;;;;;;;12.60;62.18;101141.09;10417332;28;20129;-68
2022/10/25 13:50:52;;;;;;;23.50;3.92;;;;;;;12.41;62.48;101144.84;10433425;28;20052;-71
2022/10/25 13:56:03;;;;;;;25.73;4.38;;;;;;;12.24;63.68;101149.28;10417253;28;20119;-68
2022/10/25 14:01:16;;;;;;;10.13;4.18;;;;;;;12.08;63.46;101163.34;10418101;28;20037;-68
2022/10/25 14:06:39;;;;;;;33.15;5.22;;;;;;;11.83;66.19;101151.66;10417278;28;20077;-68
2022/10/25 14:12:12;;;;;;;30.90;6.95;;;;;;;11.70;68.01;101169.88;10418177;28;20037;-68
2022/10/25 14:17:36;;;;;;;13.75;5.03;;;;;;;11.33;67.59;101170.88;10412866;28;20497;-68
2022/10/25 14:22:42;;;;;;;;;;;;;;;11.26;67.73;101169.00;10415433;28;20048;-67
2022/10/25 14:27:43;;;;;;;43.80;6.65;;;;;;;10.45;68.79;101114.84;10416524;28;19960;-68
2022/10/25 14:33:23;;;;;;;39.33;7.32;;;;;;;10.60;72.49;101172.78;10414515;28;20472;-67
2022/10/25 14:38:26;;;;;;;44.58;6.60;;;;;;;9.77;71.77;101096.50;10415369;28;20520;-68
2022/10/25 14:43:33;;;;;;;29.95;12.20;;;;;;;9.54;73.34;101111.94;10413916;28;20520;-67
2022/10/25 14:48:34;;;;;;;40.78;14.80;;;;;;;9.71;72.86;101165.22;10415915;28;20041;-67
2022/10/25 14:53:49;;;;;;;19.42;10.07;;;;;;;8.93;75.14;101085.75;10419241;28;20052;-67
2022/10/25 14:58:50;;;;;;;22.00;7.82;;;;;;;9.12;75.12;101143.19;10433988;28;20040;-70
2022/10/25 15:03:54;;;;;;;23.63;7.20;;;;;;;9.61;75.69;101210.34;10447918;28;20511;-69
2022/10/25 15:08:57;;;;;;;;;;;;;;;9.82;76.10;101212.84;10450092;28;20047;-72
2022/10/25 15:13:58;;;;;;;34.05;9.68;;;;;;;9.75;74.85;101209.06;10447714;28;20019;-69
2022/10/25 15:19:07;;;;;;;45.78;9.52;;;;;;;9.98;78.07;101228.19;10454341;28;20139;-67
2022/10/25 15:24:12;;;;;;;18.42;7.68;;;;;;;9.99;77.53;101235.16;10454668;28;20041;-67
2022/10/25 15:29:43;;;;;;;20.73;7.20;;;;;;;10.04;78.71;101236.41;10455232;28;20072;-67
2022/10/25 15:34:51;;;;;;;16.55;7.05;;;;;;;9.41;78.42;101137.91;10456432;28;20069;-67
2022/10/25 15:39:54;;;;;;;16.00;5.72;;;;;;;10.07;77.85;101246.72;10454633;28;20132;-67
2022/10/25 15:44:55;;;;;;;28.52;6.03;;;;;;;9.40;77.63;101133.59;10452882;28;20405;-67
2022/10/25 15:49:56;;;;;;;23.65;5.60;;;;;;;10.09;77.67;101238.63;10454618;28;20041;-67
2022/10/25 15:54:56;;;;;;;9.48;4.60;;;;;;;10.03;77.99;101241.88;10455435;28;20397;-70
2022/10/25 15:59:57;;;;;;;13.02;4.75;;;;;;;9.80;78.37;101250.13;10447213;28;20128;-67
2022/10/25 16:04:58;;;;;;;12.52;4.82;;;;;;;9.59;79.00;101246.78;10434887;28;20102;-68
2022/10/25 16:09:59;;;;;;;24.95;10.75;;;;;;;9.01;79.50;101194.53;10449296;28;20056;-68
2022/10/25 16:15:00;;;;;;;25.58;9.52;;;;;;;9.03;80.27;101231.50;10451673;28;20068;-68
2022/10/25 16:20:01;;;;;;;24.58;9.05;;;;;;;9.00;80.70;101260.91;10452463;28;20044;-69
2022/10/25 16:25:01;;;;;;;15.70;9.55;;;;;;;8.81;81.12;101251.94;10451388;28;20051;-67
2022/10/25 16:30:03;;;;;;;13.93;6.20;;;;;;;8.69;81.39;101248.56;10451712;28;20048;-68
2022/10/25 16:35:05;;;;;;;23.50;8.07;;;;;;;8.68;81.47;101262.78;10452023;28;20049;-68
2022/10/25 16:40:06;;;;;;;12.23;5.20;;;;;;;8.54;82.01;101264.94;10469934;28;20405;-67
2022/10/25 16:45:19;;;;;;;14.32;6.18;;;;;;;8.39;84.72;101245.91;10455844;28;20048;-67
2022/10/25 16:50:22;;;;;;;11.65;4.60;;;;;;;8.40;82.36;101264.31;10461677;28;20048;-67
2022/10/25 16:55:23;;;;;;;12.18;5.47;;;;;;;8.29;82.80;101269.66;10461340;28;20041;-67
2022/10/25 17:00:26;;;;;;;25.65;16.08;;;;;;;8.28;83.23;101272.44;10460503;28;20060;-67
2022/10/25 17:05:29;;;;;;;26.63;20.88;;;;;;;8.25;83.64;101262.94;10449270;28;20417;-71
2022/10/25 17:10:30;;;;;;;34.95;21.40;;;;;;;8.20;83.53;101260.69;10437856;28;20056;-69
2022/10/25 17:15:31;;;;;;;25.25;18.40;;;;;;;7.77;83.92;101208.72;10435964;28;20041;-68
2022/10/25 17:20:32;;;;;;;35.78;18.63;;;;;;;7.96;84.19;101266.25;10434383;28;20042;-69
2022/10/25 17:25:32;;;;;;;30.45;16.83;;;;;;;7.59;84.85;101212.91;10421376;28;20543;-69
2022/10/25 17:30:34;;;;;;;28.55;14.45;;;;;;;7.38;85.21;101191.72;10427359;28;20053;-69
2022/10/25 17:35:39;;;;;;;21.38;11.60;;;;;;;7.76;84.43;101270.53;10417886;28;20045;-69
2022/10/25 17:40:42;;;;;;;19.27;10.48;;;;;;;7.66;85.82;101253.75;10418830;28;20135;-68
2022/10/25 17:45:44;;;;;;;13.55;7.57;;;;;;;7.67;86.05;101241.38;10417288;28;20559;-69
2022/10/25 17:50:45;;;;;;;10.88;7.53;;;;;;;7.74;85.55;101261.06;10418085;28;20046;-69
2022/10/25 17:55:45;;;;;;;16.42;6.90;;;;;;;7.01;85.69;101173.63;10416641;28;20116;-69
2022/10/25 18:00:46;;;;;;;32.90;10.23;;;;;;;7.48;86.18;101250.00;10427522;28;20044;-69
2022/10/25 18:05:47;;;;;;;13.68;8.55;;;;;;;7.26;86.21;101241.16;10416556;28;20091;-69
2022/10/25 18:10:48;;;;;;;14.55;8.68;;;;;;;7.29;87.53;101242.72;10426354;28;20043;-69
2022/10/25 18:15:50;;;;;;;23.25;8.65;;;;;;;7.28;87.01;101257.72;10457714;28;20512;-68
2022/10/25 18:20:50;;;;;;;16.05;8.07;;;;;;;7.24;87.29;101258.94;10436290;28;20526;-69
2022/10/25 18:25:52;;;;;;;18.08;7.93;;;;;;;7.24;86.99;101266.03;10416356;28;20051;-69
2022/10/25 18:31:10;;;;;;;11.55;6.90;;;;;;;7.17;87.99;101270.97;10416495;28;20053;-68
2022/10/25 18:36:14;;;;;;;17.13;6.78;;;;;;;6.95;86.94;101255.16;10455850;28;20386;-69
2022/10/25 18:41:20;;;;;;;13.23;6.78;;;;;;;6.59;87.63;101228.91;10457900;28;20040;-72
2022/10/25 18:46:22;;;;;;;11.98;6.82;;;;;;;6.71;87.73;101232.38;10443647;28;20052;-68
2022/10/25 18:51:28;;;;;;;19.73;8.73;;;;;;;7.09;87.74;101281.31;10421135;28;20475;-68
2022/10/25 18:56:29;;;;;;;20.70;8.18;;;;;;;7.10;87.94;101251.28;10426247;28;20533;-69
2022/10/25 19:01:33;;;;;;;16.05;8.48;;;;;;;7.24;87.93;101258.94;10430103;28;20390;-68
2022/10/25 19:06:34;;;;;;;22.10;9.20;;;;;;;7.09;87.52;101245.19;10413921;28;20037;-69
2022/10/25 19:11:35;;;;;;;18.67;8.63;;;;;;;6.61;87.81;101181.25;10427796;28;20056;-68
2022/10/25 19:16:39;;;;;;;28.42;9.95;;;;;;;7.12;88.24;101253.78;10424718;28;20037;-68
2022/10/25 19:21:40;;;;;;;19.10;9.05;;;;;;;7.14;88.19;101241.31;10425360;28;20041;-68
2022/10/25 19:26:41;;;;;;;41.28;19.95;;;;;;;7.07;87.68;101218.03;10454590;28;20040;-68
2022/10/25 19:31:41;;;;;;;39.05;21.88;;;;;;;6.61;87.99;101163.63;10454537;28;20053;-68
2022/10/25 19:36:42;;;;;;;25.17;14.13;;;;;;;6.86;88.55;101217.94;10454958;28;20037;-68
2022/10/25 19:41:43;;;;;;;28.15;12.23;;;;;;;6.42;88.74;101142.28;10454145;28;20033;-68
2022/10/25 19:46:44;;;;;;;24.02;11.05;;;;;;;7.03;88.92;101245.66;10440747;28;20049;-68
2022/10/25 19:51:44;;;;;;;21.42;11.40;;;;;;;6.46;89.34;101125.25;10413792;28;20079;-70
2022/10/25 19:56:45;;;;;;;28.77;10.80;;;;;;;7.19;88.79;101234.69;10412793;28;20069;-68
2022/10/25 20:01:47;;;;;;;21.50;8.73;;;;;;;6.95;88.65;101170.63;10413251;28;20037;-68
2022/10/25 20:06:48;;;;;;;10.73;6.65;;;;;;;7.37;89.14;101210.38;10413247;28;20064;-68
2022/10/25 20:11:49;;;;;;;12.57;7.32;;;;;;;7.48;89.11;101202.41;10412858;28;20048;-68
2022/10/25 20:16:50;;;;;;;15.13;7.10;;;;;;;7.77;88.80;101223.75;10413937;28;20394;-68
2022/10/25 20:21:51;;;;;;;25.63;7.95;;;;;;;7.89;88.46;101203.38;10417014;28;20041;-68
2022/10/25 20:26:52;;;;;;;11.88;7.35;;;;;;;7.97;88.32;101203.56;10435814;28;20045;-68
2022/10/25 20:31:53;;;;;;;13.55;7.78;;;;;;;8.09;88.62;101221.06;10420367;28;20057;-68
2022/10/25 20:36:53;;;;;;;12.00;7.38;;;;;;;7.92;89.20;101176.66;10431279;28;20045;-68
2022/10/25 20:41:54;;;;;;;13.60;7.60;;;;;;;8.03;88.97;101199.56;10435839;28;20056;-68
2022/10/25 20:46:55;;;;;;;13.95;6.75;;;;;;;8.00;89.52;101198.84;10419691;28;20052;-68
2022/10/25 20:51:56;;;;;;;18.08;10.30;;;;;;;7.83;89.03;101170.34;10420233;28;20404;-68
2022/10/25 20:56:56;;;;;;;13.65;8.82;;;;;;;7.91;89.21;101190.88;10419859;28;20052;-68
2022/10/25 21:01:57;;;;;;;14.85;8.25;;;;;;;7.77;88.99;101176.97;10419736;28;20037;-71
2022/10/25 21:06:59;;;;;;;13.30;7.20;;;;;;;7.75;89.17;101189.53;10418912;28;20468;-68
2022/10/25 21:12:00;;;;;;;12.95;8.52;;;;;;;7.36;88.96;101134.66;10419298;28;20040;-68
2022/10/25 21:17:01;;;;;;;19.27;9.98;;;;;;;7.50;89.52;101179.31;10419207;28;20578;-71
2022/10/25 21:22:02;;;;;;;14.93;8.25;;;;;;;7.24;89.54;101157.66;10418481;28;20076;-68
2022/10/25 21:27:03;;;;;;;13.85;8.50;;;;;;;7.28;90.04;101186.38;10417060;28;20057;-68
2022/10/25 21:32:04;;;;;;;15.77;8.45;;;;;;;7.16;90.59;101184.75;10418384;28;20061;-68
2022/10/25 21:37:04;;;;;;;10.82;7.82;;;;;;;7.03;90.84;101176.97;10417924;28;20064;-68
2022/10/25 21:42:05;;;;;;;15.38;8.07;;;;;;;6.90;90.98;101181.56;10419373;28;20069;-68
2022/10/25 21:47:06;;;;;;;12.38;7.85;;;;;;;6.67;91.84;101162.31;10429010;28;20042;-68
2022/10/25 21:52:07;;;;;;;10.88;6.57;;;;;;;6.80;91.62;101178.81;10418078;28;20049;-68
2022/10/25 21:57:08;;;;;;;17.52;11.13;;;;;;;6.67;92.00;101185.19;10417848;28;20034;-68
2022/10/25 22:02:08;;;;;;;14.55;7.72;;;;;;;6.57;91.81;101178.00;10417076;28;20184;-68
2022/10/25 22:07:09;;;;;;;14.63;9.80;;;;;;;6.16;91.29;101123.22;10417227;28;20059;-67
2022/10/25 22:12:10;;;;;;;23.55;10.05;;;;;;;5.65;92.03;101036.63;10416645;28;20041;-68
2022/10/25 22:17:11;;;;;;;14.00;9.77;;;;;;;6.50;92.46;101178.63;10417582;28;20049;-68
2022/10/25 22:22:12;;;;;;;15.90;9.90;;;;;;;6.37;92.15;101182.25;10417194;28;20044;-68
2022/10/25 22:27:12;;;;;;;13.85;9.05;;;;;;;6.28;92.58;101196.16;10416475;28;20049;-68
2022/10/25 22:32:13;;;;;;;13.50;7.93;;;;;;;6.30;92.13;101193.38;10416836;28;20139;-68
2022/10/25 22:37:14;;;;;;;17.10;8.10;;;;;;;6.07;91.72;101145.03;10416003;28;20123;-68
2022/10/25 22:42:15;;;;;;;12.68;8.05;;;;;;;6.29;92.38;101191.72;10415839;28;20401;-70
2022/10/25 22:47:16;;;;;;;10.57;7.57;;;;;;;6.16;92.08;101163.66;10438991;28;20052;-68
2022/10/25 22:52:16;;;;;;;12.77;7.10;;;;;;;5.91;91.73;101085.53;10454928;28;20041;-68
2022/10/25 22:57:17;;;;;;;16.58;6.63;;;;;;;6.53;91.47;101167.84;10456125;28;20045;-68
2022/10/25 23:02:18;;;;;;;11.52;7.05;;;;;;;6.03;90.75;101056.56;10456356;28;20041;-68
2022/10/25 23:07:19;;;;;;;11.23;7.75;;;;;;;6.79;90.81;101147.25;10455754;28;20512;-68
2022/10/25 23:12:19;;;;;;;16.48;8.65;;;;;;;6.71;91.00;101124.13;10456068;28;20551;-68
2022/10/25 23:17:20;;;;;;;11.52;6.90;;;;;;;6.88;90.90;101148.31;10455737;28;20036;-68
2022/10/25 23:22:21;;;;;;;10.57;7.28;;;;;;;6.70;90.76;101105.75;10454834;28;20037;-68